Sapeacu, Brazil
Current Conditions -  °F | °C
As of 5:00 AM on Thursday 29 Jan 2015 (Local Time) from SBSV Reporting Station
Scattered Clouds Scattered Clouds  
Wind Chill: 81°   Ceiling: Unl
Heat Index: 84°   Visibility: 6mi
Dew Point: 70°   Wind: 8mph
Humidity: 70%   Direction: 100°E
Pressure: 29.91"   Gusts: NA
Location:  12.73°S, 39.18°W
Report Text: SBSV 290800Z 10007KT 9999 SCT017 27/21 Q1013
Loading
Personal Weather Stations






























Interactive Weather Map New forecast layout! Learn more

10-Day Weather Forecast

Advertisements
Track Severe Weather on mobile